sensor_id;sensor_type;location;lat;lon;timestamp;pressure;altitude;pressure_sealevel;temperature;humidity
13011;BME280;6786;57.632;11.962;2022-09-09T00:00:38;100936.88;;;22.42;49.61
13011;BME280;6786;57.632;11.962;2022-09-09T00:03:12;100940.56;;;22.41;49.92
13011;BME280;6786;57.632;11.962;2022-09-09T00:05:46;100932.47;;;22.41;49.91
13011;BME280;6786;57.632;11.962;2022-09-09T00:08:20;100928.09;;;22.40;49.62
13011;BME280;6786;57.632;11.962;2022-09-09T00:10:52;100928.97;;;22.40;49.72
13011;BME280;6786;57.632;11.962;2022-09-09T00:13:30;100912.81;;;22.40;49.80
13011;BME280;6786;57.632;11.962;2022-09-09T00:16:05;100916.31;;;22.41;49.81
13011;BME280;6786;57.632;11.962;2022-09-09T00:18:49;100914.47;;;22.41;49.57
13011;BME280;6786;57.632;11.962;2022-09-09T00:21:24;100902.84;;;22.41;49.48
13011;BME280;6786;57.632;11.962;2022-09-09T00:23:55;100904.88;;;22.39;49.61
13011;BME280;6786;57.632;11.962;2022-09-09T00:26:30;100903.88;;;22.40;49.87
13011;BME280;6786;57.632;11.962;2022-09-09T00:29:10;100903.19;;;22.38;49.71
13011;BME280;6786;57.632;11.962;2022-09-09T00:31:41;100901.47;;;22.37;49.88
13011;BME280;6786;57.632;11.962;2022-09-09T00:34:13;100899.47;;;22.39;49.83
13011;BME280;6786;57.632;11.962;2022-09-09T00:36:42;100897.66;;;22.39;49.65
13011;BME280;6786;57.632;11.962;2022-09-09T00:39:19;100891.72;;;22.36;49.67
13011;BME280;6786;57.632;11.962;2022-09-09T00:41:58;100896.94;;;22.37;49.85
13011;BME280;6786;57.632;11.962;2022-09-09T00:44:37;100890.69;;;22.37;49.43
13011;BME280;6786;57.632;11.962;2022-09-09T00:47:33;100892.41;;;22.38;49.57
13011;BME280;6786;57.632;11.962;2022-09-09T00:53:05;100886.03;;;22.39;49.34
13011;BME280;6786;57.632;11.962;2022-09-09T00:55:44;100876.25;;;22.38;49.32
13011;BME280;6786;57.632;11.962;2022-09-09T00:58:14;100849.44;;;22.19;49.92
13011;BME280;6786;57.632;11.962;2022-09-09T01:00:44;100872.84;;;22.36;49.63
13011;BME280;6786;57.632;11.962;2022-09-09T01:03:28;100871.19;;;22.35;49.59
13011;BME280;6786;57.632;11.962;2022-09-09T01:06:02;100870.16;;;22.36;49.80
13011;BME280;6786;57.632;11.962;2022-09-09T01:11:25;100863.78;;;22.37;49.51
13011;BME280;6786;57.632;11.962;2022-09-09T01:13:58;100860.09;;;22.38;49.48
13011;BME280;6786;57.632;11.962;2022-09-09T01:16:30;100863.78;;;22.37;49.33
13011;BME280;6786;57.632;11.962;2022-09-09T01:18:59;100858.38;;;22.37;49.33
13011;BME280;6786;57.632;11.962;2022-09-09T01:21:39;100853.84;;;22.37;49.55
13011;BME280;6786;57.632;11.962;2022-09-09T01:24:22;100855.00;;;22.35;49.35
13011;BME280;6786;57.632;11.962;2022-09-09T01:26:56;100851.31;;;22.36;49.39
13011;BME280;6786;57.632;11.962;2022-09-09T01:29:26;100853.00;;;22.37;49.29
13011;BME280;6786;57.632;11.962;2022-09-09T01:31:56;100856.69;;;22.36;49.66
13011;BME280;6786;57.632;11.962;2022-09-09T01:34:27;100845.94;;;22.36;49.71
13011;BME280;6786;57.632;11.962;2022-09-09T01:36:59;100850.31;;;22.37;49.66
13011;BME280;6786;57.632;11.962;2022-09-09T01:39:31;100829.00;;;22.26;49.28
13011;BME280;6786;57.632;11.962;2022-09-09T01:42:05;100838.00;;;22.34;49.42
13011;BME280;6786;57.632;11.962;2022-09-09T01:44:34;100828.69;;;22.29;49.67
13011;BME280;6786;57.632;11.962;2022-09-09T01:47:04;100837.13;;;22.34;49.75
13011;BME280;6786;57.632;11.962;2022-09-09T01:49:33;100832.31;;;22.37;49.57
13011;BME280;6786;57.632;11.962;2022-09-09T01:52:01;100836.84;;;22.37;49.42
13011;BME280;6786;57.632;11.962;2022-09-09T01:54:31;100831.44;;;22.37;49.67
13011;BME280;6786;57.632;11.962;2022-09-09T01:57:06;100830.63;;;22.36;49.24
13011;BME280;6786;57.632;11.962;2022-09-09T01:59:48;100829.78;;;22.36;49.44
13011;BME280;6786;57.632;11.962;2022-09-09T02:02:23;100830.78;;;22.35;49.53
13011;BME280;6786;57.632;11.962;2022-09-09T02:04:56;100815.38;;;22.27;49.77
13011;BME280;6786;57.632;11.962;2022-09-09T02:07:32;100830.38;;;22.30;49.67
13011;BME280;6786;57.632;11.962;2022-09-09T02:10:10;100819.31;;;22.33;49.34
13011;BME280;6786;57.632;11.962;2022-09-09T02:12:43;100826.38;;;22.34;49.31
13011;BME280;6786;57.632;11.962;2022-09-09T02:15:20;100750.44;;;21.95;49.69
13011;BME280;6786;57.632;11.962;2022-09-09T02:17:52;100821.28;;;22.31;49.76
13011;BME280;6786;57.632;11.962;2022-09-09T02:20:21;100819.63;;;22.30;49.76
13011;BME280;6786;57.632;11.962;2022-09-09T02:22:51;100776.13;;;22.07;49.67
13011;BME280;6786;57.632;11.962;2022-09-09T02:25:23;100807.97;;;22.29;49.49
13011;BME280;6786;57.632;11.962;2022-09-09T02:27:55;100766.91;;;22.10;49.58
13011;BME280;6786;57.632;11.962;2022-09-09T02:30:28;100807.53;;;22.34;49.28
13011;BME280;6786;57.632;11.962;2022-09-09T02:32:58;100801.47;;;22.32;49.40
13011;BME280;6786;57.632;11.962;2022-09-09T02:35:29;100805.13;;;22.31;49.72
13011;BME280;6786;57.632;11.962;2022-09-09T02:38:01;100764.22;;;22.10;49.41
13011;BME280;6786;57.632;11.962;2022-09-09T02:40:30;100801.47;;;22.32;49.33
13011;BME280;6786;57.632;11.962;2022-09-09T02:43:00;100801.47;;;22.32;49.70
13011;BME280;6786;57.632;11.962;2022-09-09T02:45:36;100792.38;;;22.33;49.53
13011;BME280;6786;57.632;11.962;2022-09-09T02:48:12;100796.09;;;22.32;49.49
13011;BME280;6786;57.632;11.962;2022-09-09T02:50:47;100790.00;;;22.30;49.32
13011;BME280;6786;57.632;11.962;2022-09-09T02:53:23;100794.91;;;22.34;49.21
13011;BME280;6786;57.632;11.962;2022-09-09T02:55:55;100790.38;;;22.35;49.57
13011;BME280;6786;57.632;11.962;2022-09-09T02:58:27;100785.66;;;22.37;49.32
13011;BME280;6786;57.632;11.962;2022-09-09T03:00:56;100788.66;;;22.34;49.36
13011;BME280;6786;57.632;11.962;2022-09-09T03:03:26;100783.59;;;22.31;49.61
13011;BME280;6786;57.632;11.962;2022-09-09T03:05:54;100787.00;;;22.33;49.31
13011;BME280;6786;57.632;11.962;2022-09-09T03:08:23;100779.22;;;22.30;49.42
13011;BME280;6786;57.632;11.962;2022-09-09T03:10:51;100785.00;;;22.35;49.41
13011;BME280;6786;57.632;11.962;2022-09-09T03:13:21;100778.75;;;22.34;49.23
13011;BME280;6786;57.632;11.962;2022-09-09T03:15:50;100771.53;;;22.35;49.40
13011;BME280;6786;57.632;11.962;2022-09-09T03:18:19;100775.06;;;22.35;49.25
13011;BME280;6786;57.632;11.962;2022-09-09T03:20:47;100781.28;;;22.36;49.52
13011;BME280;6786;57.632;11.962;2022-09-09T03:23:16;100775.91;;;22.36;49.37
13011;BME280;6786;57.632;11.962;2022-09-09T03:25:47;100777.59;;;22.37;49.09
13011;BME280;6786;57.632;11.962;2022-09-09T03:28:16;100770.53;;;22.36;49.09
13011;BME280;6786;57.632;11.962;2022-09-09T03:30:44;100769.66;;;22.35;49.50
13011;BME280;6786;57.632;11.962;2022-09-09T03:33:13;100772.19;;;22.37;49.15
13011;BME280;6786;57.632;11.962;2022-09-09T03:35:45;100757.69;;;22.30;49.08
13011;BME280;6786;57.632;11.962;2022-09-09T03:38:15;100765.13;;;22.36;49.42
13011;BME280;6786;57.632;11.962;2022-09-09T03:40:49;100764.28;;;22.35;49.50
13011;BME280;6786;57.632;11.962;2022-09-09T03:43:18;100756.34;;;22.34;49.24
13011;BME280;6786;57.632;11.962;2022-09-09T03:45:46;100727.06;;;22.13;49.33
13011;BME280;6786;57.632;11.962;2022-09-09T03:48:17;100754.69;;;22.33;49.49
13011;BME280;6786;57.632;11.962;2022-09-09T03:50:46;100745.06;;;22.30;49.53
13011;BME280;6786;57.632;11.962;2022-09-09T03:53:15;100743.91;;;22.33;49.43
13011;BME280;6786;57.632;11.962;2022-09-09T03:55:44;100743.19;;;22.31;49.30
13011;BME280;6786;57.632;11.962;2022-09-09T03:58:13;100744.22;;;22.30;49.28
13011;BME280;6786;57.632;11.962;2022-09-09T04:00:41;100736.13;;;22.30;49.17
13011;BME280;6786;57.632;11.962;2022-09-09T04:03:12;100730.91;;;22.28;49.23
13011;BME280;6786;57.632;11.962;2022-09-09T04:05:41;100731.06;;;22.27;49.37
13011;BME280;6786;57.632;11.962;2022-09-09T04:08:09;100732.59;;;22.29;49.55
13011;BME280;6786;57.632;11.962;2022-09-09T04:10:38;100730.06;;;22.28;49.49
13011;BME280;6786;57.632;11.962;2022-09-09T04:13:06;100729.06;;;22.29;49.43
13011;BME280;6786;57.632;11.962;2022-09-09T04:15:34;100721.00;;;22.29;49.32
13011;BME280;6786;57.632;11.962;2022-09-09T04:18:03;100726.38;;;22.29;49.52
13011;BME280;6786;57.632;11.962;2022-09-09T04:20:32;100681.94;;;22.07;49.56
13011;BME280;6786;57.632;11.962;2022-09-09T04:23:02;100721.34;;;22.34;49.00
13011;BME280;6786;57.632;11.962;2022-09-09T04:25:30;100707.72;;;22.35;49.03
13011;BME280;6786;57.632;11.962;2022-09-09T04:27:58;100711.28;;;22.36;49.08
13011;BME280;6786;57.632;11.962;2022-09-09T04:30:26;100706.91;;;22.35;49.38
13011;BME280;6786;57.632;11.962;2022-09-09T04:32:56;100706.91;;;22.35;49.00
13011;BME280;6786;57.632;11.962;2022-09-09T04:35:24;100703.34;;;22.34;49.39
13011;BME280;6786;57.632;11.962;2022-09-09T04:37:53;100702.50;;;22.34;49.18
13011;BME280;6786;57.632;11.962;2022-09-09T04:40:23;100702.50;;;22.34;49.42
13011;BME280;6786;57.632;11.962;2022-09-09T04:42:51;100697.13;;;22.34;49.41
13011;BME280;6786;57.632;11.962;2022-09-09T04:45:19;100698.13;;;22.33;49.14
13011;BME280;6786;57.632;11.962;2022-09-09T04:47:47;100686.97;;;22.28;49.14
13011;BME280;6786;57.632;11.962;2022-09-09T04:50:16;100691.22;;;22.30;49.27
13011;BME280;6786;57.632;11.962;2022-09-09T04:52:44;100691.22;;;22.30;49.28
13011;BME280;6786;57.632;11.962;2022-09-09T04:55:12;100684.97;;;22.30;49.49
13011;BME280;6786;57.632;11.962;2022-09-09T04:57:41;100689.34;;;22.31;49.54
13011;BME280;6786;57.632;11.962;2022-09-09T05:00:11;100687.66;;;22.30;49.21
13011;BME280;6786;57.632;11.962;2022-09-09T05:02:40;100684.97;;;22.30;49.54
13011;BME280;6786;57.632;11.962;2022-09-09T05:05:09;100685.28;;;22.27;49.31
13011;BME280;6786;57.632;11.962;2022-09-09T05:07:37;100681.59;;;22.28;49.44
13011;BME280;6786;57.632;11.962;2022-09-09T05:10:06;100690.38;;;22.30;49.12
13011;BME280;6786;57.632;11.962;2022-09-09T05:12:34;100687.66;;;22.30;49.15
13011;BME280;6786;57.632;11.962;2022-09-09T05:15:05;100690.38;;;22.30;49.27
13011;BME280;6786;57.632;11.962;2022-09-09T05:17:33;100679.59;;;22.30;49.06
13011;BME280;6786;57.632;11.962;2022-09-09T05:20:02;100688.69;;;22.29;49.25
13011;BME280;6786;57.632;11.962;2022-09-09T05:22:35;100678.53;;;22.23;49.51
13011;BME280;6786;57.632;11.962;2022-09-09T05:25:04;100692.91;;;22.31;49.07
13011;BME280;6786;57.632;11.962;2022-09-09T05:27:33;100688.38;;;22.32;49.06
13011;BME280;6786;57.632;11.962;2022-09-09T05:30:01;100681.28;;;22.31;49.40
13011;BME280;6786;57.632;11.962;2022-09-09T05:32:32;100685.84;;;22.30;49.08
13011;BME280;6786;57.632;11.962;2022-09-09T05:35:00;100692.03;;;22.31;49.18
13011;BME280;6786;57.632;11.962;2022-09-09T05:37:30;100681.28;;;22.31;49.22
13011;BME280;6786;57.632;11.962;2022-09-09T05:39:59;100695.44;;;22.33;49.20
13011;BME280;6786;57.632;11.962;2022-09-09T05:42:30;100698.28;;;22.31;49.10
13011;BME280;6786;57.632;11.962;2022-09-09T05:44:59;100705.34;;;22.32;49.36
13011;BME280;6786;57.632;11.962;2022-09-09T05:47:27;100707.88;;;22.34;49.46
13011;BME280;6786;57.632;11.962;2022-09-09T05:49:56;100711.97;;;22.38;49.70
13011;BME280;6786;57.632;11.962;2022-09-09T05:52:25;100699.19;;;22.40;49.73
13011;BME280;6786;57.632;11.962;2022-09-09T05:54:54;100646.09;;;22.07;49.52
13011;BME280;6786;57.632;11.962;2022-09-09T05:57:23;100695.16;;;22.44;49.46
13011;BME280;6786;57.632;11.962;2022-09-09T05:59:51;100668.81;;;22.30;49.43
13011;BME280;6786;57.632;11.962;2022-09-09T06:02:20;100706.63;;;22.46;49.83
13011;BME280;6786;57.632;11.962;2022-09-09T06:04:48;100704.63;;;22.48;49.60
13011;BME280;6786;57.632;11.962;2022-09-09T06:07:18;100706.31;;;22.49;49.82
13011;BME280;6786;57.632;11.962;2022-09-09T06:09:46;100698.97;;;22.51;49.51
13011;BME280;6786;57.632;11.962;2022-09-09T06:12:14;100703.34;;;22.52;49.51
13011;BME280;6786;57.632;11.962;2022-09-09T06:14:42;100683.03;;;22.40;49.77
13011;BME280;6786;57.632;11.962;2022-09-09T06:17:12;100685.09;;;22.46;49.60
13011;BME280;6786;57.632;11.962;2022-09-09T06:19:40;100702.31;;;22.53;49.77
13011;BME280;6786;57.632;11.962;2022-09-09T06:22:08;100658.38;;;22.27;49.81
13011;BME280;6786;57.632;11.962;2022-09-09T06:24:40;100684.06;;;22.47;49.65
13011;BME280;6786;57.632;11.962;2022-09-09T06:27:08;100683.47;;;22.53;49.95
13011;BME280;6786;57.632;11.962;2022-09-09T06:29:37;100654.72;;;22.36;49.65
13011;BME280;6786;57.632;11.962;2022-09-09T06:32:05;100692.09;;;22.56;49.81
13011;BME280;6786;57.632;11.962;2022-09-09T06:34:35;100692.25;;;22.55;49.47
13011;BME280;6786;57.632;11.962;2022-09-09T06:37:03;100682.16;;;22.57;49.43
13011;BME280;6786;57.632;11.962;2022-09-09T06:39:32;100687.56;;;22.57;49.60
13011;BME280;6786;57.632;11.962;2022-09-09T06:42:03;100686.88;;;22.55;49.60
13011;BME280;6786;57.632;11.962;2022-09-09T06:44:31;100690.41;;;22.55;49.56
13011;BME280;6786;57.632;11.962;2022-09-09T06:47:01;100689.25;;;22.58;49.41
13011;BME280;6786;57.632;11.962;2022-09-09T06:49:30;100675.06;;;22.56;49.55
13011;BME280;6786;57.632;11.962;2022-09-09T06:51:58;100680.16;;;22.59;49.27
13011;BME280;6786;57.632;11.962;2022-09-09T06:54:26;100675.59;;;22.59;49.40
13011;BME280;6786;57.632;11.962;2022-09-09T06:56:55;100669.38;;;22.59;49.71
13011;BME280;6786;57.632;11.962;2022-09-09T06:59:24;100669.38;;;22.59;49.82
13011;BME280;6786;57.632;11.962;2022-09-09T07:01:54;100668.53;;;22.58;49.83
13011;BME280;6786;57.632;11.962;2022-09-09T07:04:22;100674.75;;;22.59;49.58
13011;BME280;6786;57.632;11.962;2022-09-09T07:06:50;100671.75;;;22.62;49.42
13011;BME280;6786;57.632;11.962;2022-09-09T07:09:19;100666.00;;;22.57;49.77
13011;BME280;6786;57.632;11.962;2022-09-09T07:11:49;100671.75;;;22.62;49.79
13011;BME280;6786;57.632;11.962;2022-09-09T07:14:19;100675.44;;;22.61;49.52
13011;BME280;6786;57.632;11.962;2022-09-09T07:16:50;100673.63;;;22.61;49.56
13011;BME280;6786;57.632;11.962;2022-09-09T07:19:24;100663.97;;;22.59;49.76
13011;BME280;6786;57.632;11.962;2022-09-09T07:21:53;100669.06;;;22.62;49.69
13011;BME280;6786;57.632;11.962;2022-09-09T07:24:21;100670.75;;;22.63;49.87
13011;BME280;6786;57.632;11.962;2022-09-09T07:26:49;100661.44;;;22.57;49.76
13011;BME280;6786;57.632;11.962;2022-09-09T07:29:18;100648.44;;;22.53;49.69
13011;BME280;6786;57.632;11.962;2022-09-09T07:31:47;100573.41;;;22.07;49.85
13011;BME280;6786;57.632;11.962;2022-09-09T07:34:16;100663.66;;;22.62;49.59
13011;BME280;6786;57.632;11.962;2022-09-09T07:36:45;100663.66;;;22.62;49.72
13011;BME280;6786;57.632;11.962;2022-09-09T07:39:13;100640.00;;;22.48;49.82
13011;BME280;6786;57.632;11.962;2022-09-09T07:41:45;100666.03;;;22.65;49.45
13011;BME280;6786;57.632;11.962;2022-09-09T07:44:15;100668.72;;;22.65;49.74
13011;BME280;6786;57.632;11.962;2022-09-09T07:46:44;100674.13;;;22.65;49.76
13011;BME280;6786;57.632;11.962;2022-09-09T07:49:13;100663.34;;;22.65;49.68
13011;BME280;6786;57.632;11.962;2022-09-09T07:51:44;100669.59;;;22.65;49.73
13011;BME280;6786;57.632;11.962;2022-09-09T07:54:14;100663.34;;;22.65;49.64
13011;BME280;6786;57.632;11.962;2022-09-09T07:56:43;100645.09;;;22.51;49.74
13011;BME280;6786;57.632;11.962;2022-09-09T07:59:11;100671.44;;;22.65;50.04
13011;BME280;6786;57.632;11.962;2022-09-09T08:01:41;100668.72;;;22.65;49.75
13011;BME280;6786;57.632;11.962;2022-09-09T08:04:11;100684.06;;;22.64;49.58
13011;BME280;6786;57.632;11.962;2022-09-09T08:06:45;100673.13;;;22.66;49.84
13011;BME280;6786;57.632;11.962;2022-09-09T08:09:14;100678.69;;;22.64;49.43
13011;BME280;6786;57.632;11.962;2022-09-09T08:11:43;100674.28;;;22.63;49.52
13011;BME280;6786;57.632;11.962;2022-09-09T08:14:12;100683.22;;;22.64;49.62
13011;BME280;6786;57.632;11.962;2022-09-09T08:16:42;100671.59;;;22.63;49.83
13011;BME280;6786;57.632;11.962;2022-09-09T08:19:11;100648.00;;;22.40;49.56
13011;BME280;6786;57.632;11.962;2022-09-09T08:21:40;100679.81;;;22.62;49.64
13011;BME280;6786;57.632;11.962;2022-09-09T08:24:11;100681.53;;;22.63;49.87
13011;BME280;6786;57.632;11.962;2022-09-09T08:26:42;100681.38;;;22.64;49.91
13011;BME280;6786;57.632;11.962;2022-09-09T08:29:11;100676.16;;;22.63;49.72
13011;BME280;6786;57.632;11.962;2022-09-09T08:31:41;100640.63;;;22.42;49.72
13011;BME280;6786;57.632;11.962;2022-09-09T08:34:10;100681.53;;;22.63;49.57
13011;BME280;6786;57.632;11.962;2022-09-09T08:36:41;100649.69;;;22.41;49.50
13011;BME280;6786;57.632;11.962;2022-09-09T08:39:13;100670.06;;;22.61;49.85
13011;BME280;6786;57.632;11.962;2022-09-09T08:44:45;100666.31;;;22.54;50.01
13011;BME280;6786;57.632;11.962;2022-09-09T08:47:24;100690.28;;;22.65;49.94
13011;BME280;6786;57.632;11.962;2022-09-09T08:50:20;100666.00;;;22.57;49.96
13011;BME280;6786;57.632;11.962;2022-09-09T08:52:56;100698.38;;;22.65;49.89
13011;BME280;6786;57.632;11.962;2022-09-09T08:55:37;100685.75;;;22.65;49.70
13011;BME280;6786;57.632;11.962;2022-09-09T08:58:12;100680.38;;;22.65;49.79
13011;BME280;6786;57.632;11.962;2022-09-09T09:00:47;100682.19;;;22.65;49.97
13011;BME280;6786;57.632;11.962;2022-09-09T09:03:25;100684.91;;;22.65;49.67
13011;BME280;6786;57.632;11.962;2022-09-09T09:06:01;100692.97;;;22.65;50.02
13011;BME280;6786;57.632;11.962;2022-09-09T09:08:39;100677.13;;;22.62;49.91
13011;BME280;6786;57.632;11.962;2022-09-09T09:11:12;100677.81;;;22.64;49.86
13011;BME280;6786;57.632;11.962;2022-09-09T09:13:45;100677.81;;;22.64;49.95
13011;BME280;6786;57.632;11.962;2022-09-09T09:16:22;100688.59;;;22.64;49.93
13011;BME280;6786;57.632;11.962;2022-09-09T09:18:51;100679.81;;;22.62;49.65
13011;BME280;6786;57.632;11.962;2022-09-09T09:21:31;100655.78;;;22.43;49.84
13011;BME280;6786;57.632;11.962;2022-09-09T09:24:01;100679.66;;;22.63;50.11
13011;BME280;6786;57.632;11.962;2022-09-09T09:26:34;100651.75;;;22.47;50.04
13011;BME280;6786;57.632;11.962;2022-09-09T09:29:10;100676.78;;;22.57;49.95
13011;BME280;6786;57.632;11.962;2022-09-09T09:31:42;100679.34;;;22.66;49.71
13011;BME280;6786;57.632;11.962;2022-09-09T09:34:14;100677.50;;;22.67;49.69
13011;BME280;6786;57.632;11.962;2022-09-09T09:36:52;100692.00;;;22.66;49.64
13011;BME280;6786;57.632;11.962;2022-09-09T09:39:25;100672.75;;;22.61;49.79
13011;BME280;6786;57.632;11.962;2022-09-09T09:42:16;100684.91;;;22.65;49.96
13011;BME280;6786;57.632;11.962;2022-09-09T09:44:49;100669.75;;;22.64;49.54
13011;BME280;6786;57.632;11.962;2022-09-09T09:47:18;100676.66;;;22.66;50.01
13011;BME280;6786;57.632;11.962;2022-09-09T09:49:53;100681.22;;;22.66;49.92
13011;BME280;6786;57.632;11.962;2022-09-09T09:52:24;100681.22;;;22.66;49.89
13011;BME280;6786;57.632;11.962;2022-09-09T09:54:54;100687.59;;;22.65;50.10
13011;BME280;6786;57.632;11.962;2022-09-09T09:57:27;100682.19;;;22.65;49.73
13011;BME280;6786;57.632;11.962;2022-09-09T10:00:11;100685.75;;;22.65;50.19
13011;BME280;6786;57.632;11.962;2022-09-09T10:02:42;100682.03;;;22.66;49.97
13011;BME280;6786;57.632;11.962;2022-09-09T10:05:17;100679.50;;;22.65;49.93
13011;BME280;6786;57.632;11.962;2022-09-09T10:08:04;100682.03;;;22.66;50.42
13011;BME280;6786;57.632;11.962;2022-09-09T10:10:45;100682.38;;;22.63;50.25
13011;BME280;6786;57.632;11.962;2022-09-09T10:13:24;100683.22;;;22.64;50.20
13011;BME280;6786;57.632;11.962;2022-09-09T10:16:05;100673.06;;;22.58;50.90
13011;BME280;6786;57.632;11.962;2022-09-09T10:18:47;100682.91;;;22.67;50.92
13011;BME280;6786;57.632;11.962;2022-09-09T10:21:32;100679.81;;;22.62;50.30
13011;BME280;6786;57.632;11.962;2022-09-09T10:24:30;100673.06;;;22.58;50.35
13011;BME280;6786;57.632;11.962;2022-09-09T10:27:05;100688.91;;;22.61;50.13
13011;BME280;6786;57.632;11.962;2022-09-09T10:29:57;100689.94;;;22.60;50.72
13011;BME280;6786;57.632;11.962;2022-09-09T10:32:41;100684.47;;;22.52;50.36
13011;BME280;6786;57.632;11.962;2022-09-09T10:35:27;100689.25;;;22.58;50.50
13011;BME280;6786;57.632;11.962;2022-09-09T10:38:14;100691.25;;;22.56;50.40
13011;BME280;6786;57.632;11.962;2022-09-09T10:41:04;100698.34;;;22.57;50.61
13011;BME280;6786;57.632;11.962;2022-09-09T10:43:50;100656.72;;;22.34;50.25
13011;BME280;6786;57.632;11.962;2022-09-09T10:46:34;100700.34;;;22.55;50.50
13011;BME280;6786;57.632;11.962;2022-09-09T10:49:16;100698.66;;;22.54;50.65
13011;BME280;6786;57.632;11.962;2022-09-09T10:51:53;100707.72;;;22.53;50.56
13011;BME280;6786;57.632;11.962;2022-09-09T10:54:40;100707.72;;;22.53;50.34
13011;BME280;6786;57.632;11.962;2022-09-09T10:57:23;100673.56;;;22.36;50.35
13011;BME280;6786;57.632;11.962;2022-09-09T10:59:58;100708.03;;;22.50;50.66
13011;BME280;6786;57.632;11.962;2022-09-09T11:02:30;100702.31;;;22.53;50.27
13011;BME280;6786;57.632;11.962;2022-09-09T11:05:02;100703.72;;;22.57;50.21
13011;BME280;6786;57.632;11.962;2022-09-09T11:07:37;100708.47;;;22.63;50.55
13011;BME280;6786;57.632;11.962;2022-09-09T11:10:17;100709.84;;;22.67;50.75
13011;BME280;6786;57.632;11.962;2022-09-09T11:12:49;100709.53;;;22.70;50.46
13011;BME280;6786;57.632;11.962;2022-09-09T11:15:23;100719.97;;;22.73;50.32
13011;BME280;6786;57.632;11.962;2022-09-09T11:17:59;100703.66;;;22.74;50.33
13011;BME280;6786;57.632;11.962;2022-09-09T11:20:29;100714.28;;;22.76;50.35
13011;BME280;6786;57.632;11.962;2022-09-09T11:23:02;100723.06;;;22.78;50.55
13011;BME280;6786;57.632;11.962;2022-09-09T11:25:33;100708.56;;;22.79;50.42
13011;BME280;6786;57.632;11.962;2022-09-09T11:28:23;100702.47;;;22.77;50.48
13011;BME280;6786;57.632;11.962;2022-09-09T11:31:03;100702.16;;;22.80;50.62
13011;BME280;6786;57.632;11.962;2022-09-09T11:34:09;100709.28;;;22.81;50.55
13011;BME280;6786;57.632;11.962;2022-09-09T11:37:24;100699.47;;;22.80;50.78
13011;BME280;6786;57.632;11.962;2022-09-09T11:40:18;100701.50;;;22.78;50.60
13011;BME280;6786;57.632;11.962;2022-09-09T11:42:48;100704.34;;;22.76;50.34
13011;BME280;6786;57.632;11.962;2022-09-09T11:45:23;100696.78;;;22.80;50.71
13011;BME280;6786;57.632;11.962;2022-09-09T11:47:53;100699.47;;;22.80;50.77
13011;BME280;6786;57.632;11.962;2022-09-09T11:50:35;100701.84;;;22.83;50.66
13011;BME280;6786;57.632;11.962;2022-09-09T11:53:17;100704.53;;;22.83;50.59
13011;BME280;6786;57.632;11.962;2022-09-09T11:56:07;100698.00;;;22.85;50.89
13011;BME280;6786;57.632;11.962;2022-09-09T11:58:38;100705.25;;;22.85;50.79
13011;BME280;6786;57.632;11.962;2022-09-09T12:01:35;100693.75;;;22.83;50.94
13011;BME280;6786;57.632;11.962;2022-09-09T12:04:31;100699.69;;;22.86;50.70
13011;BME280;6786;57.632;11.962;2022-09-09T12:07:04;100695.13;;;22.87;50.43
13011;BME280;6786;57.632;11.962;2022-09-09T12:09:44;100696.84;;;22.88;51.08
13011;BME280;6786;57.632;11.962;2022-09-09T12:12:26;100705.91;;;22.87;51.07
13011;BME280;6786;57.632;11.962;2022-09-09T12:14:58;100700.88;;;22.84;50.45
13011;BME280;6786;57.632;11.962;2022-09-09T12:17:28;100676.16;;;22.63;51.04
13011;BME280;6786;57.632;11.962;2022-09-09T12:20:02;100703.50;;;22.76;50.85
13011;BME280;6786;57.632;11.962;2022-09-09T12:22:45;100681.84;;;22.60;50.94
13011;BME280;6786;57.632;11.962;2022-09-09T12:25:20;100698.44;;;22.73;50.67
13011;BME280;6786;57.632;11.962;2022-09-09T12:28:03;100703.81;;;22.73;50.71
13011;BME280;6786;57.632;11.962;2022-09-09T12:30:39;100705.81;;;22.71;51.05
13011;BME280;6786;57.632;11.962;2022-09-09T12:33:11;100704.13;;;22.70;51.02
13011;BME280;6786;57.632;11.962;2022-09-09T12:35:43;100693.34;;;22.70;50.87
13011;BME280;6786;57.632;11.962;2022-09-09T12:38:20;100700.44;;;22.71;50.92
13011;BME280;6786;57.632;11.962;2022-09-09T12:40:55;100698.75;;;22.70;50.66
13011;BME280;6786;57.632;11.962;2022-09-09T12:43:26;100650.03;;;22.38;51.06
13011;BME280;6786;57.632;11.962;2022-09-09T12:45:56;100706.81;;;22.70;51.03
13011;BME280;6786;57.632;11.962;2022-09-09T12:48:35;100695.34;;;22.68;51.15
13011;BME280;6786;57.632;11.962;2022-09-09T12:51:07;100661.53;;;22.48;51.22
13011;BME280;6786;57.632;11.962;2022-09-09T12:53:45;100686.94;;;22.63;50.94
13011;BME280;6786;57.632;11.962;2022-09-09T12:56:19;100708.47;;;22.63;51.32
13011;BME280;6786;57.632;11.962;2022-09-09T12:58:48;100703.91;;;22.63;51.37
13011;BME280;6786;57.632;11.962;2022-09-09T13:01:21;100696.00;;;22.62;51.19
13011;BME280;6786;57.632;11.962;2022-09-09T13:03:50;100694.00;;;22.64;51.28
13011;BME280;6786;57.632;11.962;2022-09-09T13:06:22;100681.84;;;22.60;51.09
13011;BME280;6786;57.632;11.962;2022-09-09T13:08:59;100700.41;;;22.63;51.17
13011;BME280;6786;57.632;11.962;2022-09-09T13:11:30;100694.84;;;22.64;51.20
13011;BME280;6786;57.632;11.962;2022-09-09T13:13:59;100696.00;;;22.62;51.23
13011;BME280;6786;57.632;11.962;2022-09-09T13:16:29;100661.53;;;22.48;51.23
13011;BME280;6786;57.632;11.962;2022-09-09T13:19:02;100688.38;;;22.57;51.45
13011;BME280;6786;57.632;11.962;2022-09-09T13:21:35;100694.16;;;22.62;51.35
13011;BME280;6786;57.632;11.962;2022-09-09T13:24:21;100696.00;;;22.62;51.37
13011;BME280;6786;57.632;11.962;2022-09-09T13:26:55;100700.41;;;22.63;51.63
13011;BME280;6786;57.632;11.962;2022-09-09T13:29:24;100692.31;;;22.63;51.30